createdAt,value
2019-02-21T00:01:05.018Z,27.37
2019-02-21T00:03:35.676Z,24.47
2019-02-21T00:06:06.025Z,26.87
2019-02-21T00:08:36.306Z,29.30
2019-02-21T00:11:06.615Z,28.73
2019-02-21T00:13:36.903Z,24.67
2019-02-21T00:16:07.172Z,24.20
2019-02-21T00:18:37.467Z,25.27
2019-02-21T00:21:07.753Z,29.90
2019-02-21T00:23:38.060Z,21.40
2019-02-21T00:26:10.630Z,26.40
2019-02-21T00:28:40.929Z,27.37
2019-02-21T00:31:11.212Z,24.63
2019-02-21T00:33:41.501Z,20.73
2019-02-21T00:36:11.786Z,30.20
2019-02-21T00:38:42.094Z,26.73
2019-02-21T00:41:12.357Z,24.83
2019-02-21T00:43:42.640Z,17.03
2019-02-21T00:46:12.929Z,27.50
2019-02-21T00:48:43.231Z,23.53
2019-02-21T00:51:13.551Z,25.13
2019-02-21T00:53:43.858Z,20.37
2019-02-21T00:56:14.132Z,19.33
2019-02-21T00:58:44.421Z,27.13
2019-02-21T01:01:14.729Z,20.40
2019-02-21T01:03:45.071Z,27.57
2019-02-21T01:06:15.353Z,19.43
2019-02-21T01:08:47.232Z,25.17
2019-02-21T01:11:17.492Z,23.87
2019-02-21T01:13:47.777Z,18.63
2019-02-21T01:16:18.096Z,23.13
2019-02-21T01:18:48.376Z,26.03
2019-02-21T01:21:19.749Z,22.47
2019-02-21T01:23:50.031Z,21.03
2019-02-21T01:26:20.293Z,24.60
2019-02-21T01:28:50.589Z,18.20
2019-02-21T01:31:20.864Z,26.60
2019-02-21T01:33:52.115Z,20.27
2019-02-21T01:36:22.383Z,22.83
2019-02-21T01:38:52.661Z,15.20
2019-02-21T01:41:22.955Z,23.13
2019-02-21T01:43:53.427Z,20.77
2019-02-21T01:46:23.702Z,29.00
2019-02-21T01:48:54.057Z,21.07
2019-02-21T01:51:24.344Z,17.97
2019-02-21T01:53:54.623Z,20.60
2019-02-21T01:56:24.952Z,21.40
2019-02-21T01:58:55.200Z,17.70
2019-02-21T02:01:25.478Z,23.33
2019-02-21T02:03:56.022Z,18.57
2019-02-21T02:06:26.324Z,18.23
2019-02-21T02:08:56.596Z,18.80
2019-02-21T02:11:27.849Z,19.53
2019-02-21T02:13:58.168Z,21.83
2019-02-21T02:16:28.439Z,21.83
2019-02-21T02:18:58.719Z,17.60
2019-02-21T02:21:29.013Z,23.00
2019-02-21T02:23:59.296Z,18.37
2019-02-21T02:26:29.553Z,18.27
2019-02-21T02:28:59.956Z,18.77
2019-02-21T02:31:30.323Z,15.27
2019-02-21T02:34:00.612Z,15.73
2019-02-21T02:36:31.022Z,22.20
2019-02-21T02:39:01.292Z,16.07
2019-02-21T02:41:33.146Z,18.90
2019-02-21T02:44:03.558Z,18.90
2019-02-21T02:46:33.812Z,18.83
2019-02-21T02:49:04.183Z,20.30
2019-02-21T02:51:34.449Z,17.70
2019-02-21T02:54:04.713Z,17.67
2019-02-21T02:56:34.983Z,20.63
2019-02-21T02:59:06.301Z,17.53
2019-02-21T03:01:36.887Z,21.47
2019-02-21T03:04:07.172Z,21.90
2019-02-21T03:06:37.468Z,16.00
2019-02-21T03:09:09.370Z,17.30
2019-02-21T03:11:39.928Z,19.63
2019-02-21T03:14:10.222Z,14.23
2019-02-21T03:16:40.480Z,17.30
2019-02-21T03:19:10.770Z,20.00
2019-02-21T03:21:41.040Z,15.63
2019-02-21T03:24:11.323Z,12.47
2019-02-21T03:26:41.640Z,18.27
2019-02-21T03:29:11.910Z,14.00
2019-02-21T03:31:54.591Z,10.23
2019-02-21T03:34:14.174Z,19.87
2019-02-21T03:36:44.454Z,13.53
2019-02-21T03:39:14.745Z,16.17
2019-02-21T03:41:45.112Z,13.70
2019-02-21T03:44:15.528Z,15.13
2019-02-21T03:46:45.779Z,13.73
2019-02-21T03:49:16.038Z,17.07
2019-02-21T03:51:46.314Z,11.60
2019-02-21T03:54:16.592Z,13.63
2019-02-21T03:56:46.866Z,14.57
2019-02-21T03:59:17.335Z,17.03
2019-02-21T04:01:47.639Z,11.10
2019-02-21T04:04:19.522Z,15.90
2019-02-21T04:06:49.872Z,16.43
2019-02-21T04:09:20.143Z,15.53
2019-02-21T04:11:50.395Z,14.50
2019-02-21T04:14:21.218Z,15.53
2019-02-21T04:16:51.523Z,13.47
2019-02-21T04:19:22.850Z,13.07
2019-02-21T04:21:53.129Z,13.87
2019-02-21T04:24:23.398Z,19.27
2019-02-21T04:26:53.696Z,11.70
2019-02-21T04:29:23.970Z,13.60
2019-02-21T04:31:54.242Z,10.97
2019-02-21T04:34:24.516Z,11.50
2019-02-21T04:36:55.885Z,13.63
2019-02-21T04:39:26.112Z,12.30
2019-02-21T04:41:56.379Z,10.53
2019-02-21T04:44:26.639Z,12.33
2019-02-21T04:46:56.901Z,14.73
2019-02-21T04:49:27.174Z,13.73
2019-02-21T04:51:57.449Z,16.77
2019-02-21T04:54:27.727Z,15.67
2019-02-21T04:56:58.946Z,9.90
2019-02-21T04:59:29.195Z,13.50
2019-02-21T05:01:59.483Z,12.67
2019-02-21T05:04:29.760Z,12.87
2019-02-21T05:07:00.037Z,15.10
2019-02-21T05:09:30.326Z,11.53
2019-02-21T05:12:00.580Z,16.53
2019-02-21T05:14:30.831Z,15.50
2019-02-21T05:17:01.219Z,15.10
2019-02-21T05:19:31.612Z,14.93
2019-02-21T05:22:01.884Z,14.83
2019-02-21T05:24:32.750Z,16.50
2019-02-21T05:27:04.784Z,14.97
2019-02-21T05:29:35.102Z,16.83
2019-02-21T05:32:15.909Z,14.10
2019-02-21T05:34:50.474Z,15.40
2019-02-21T05:37:22.633Z,18.73
2019-02-21T05:40:03.199Z,14.43
2019-02-21T05:42:40.746Z,17.33
2019-02-21T05:45:31.652Z,15.50
2019-02-21T05:48:20.526Z,15.67
2019-02-21T05:51:08.126Z,16.37
2019-02-21T05:53:40.510Z,18.97
2019-02-21T05:56:18.365Z,16.90
2019-02-21T05:59:02.935Z,16.37
2019-02-21T06:01:38.525Z,20.90
2019-02-21T06:04:13.297Z,23.03
2019-02-21T06:06:55.097Z,17.37
2019-02-21T06:09:27.824Z,21.13
2019-02-21T06:12:08.650Z,18.53
2019-02-21T06:14:45.237Z,19.00
2019-02-21T06:17:20.024Z,16.97
2019-02-21T06:20:07.086Z,20.40
2019-02-21T06:22:39.007Z,17.50
2019-02-21T06:25:10.966Z,19.13
2019-02-21T06:27:45.635Z,17.30
2019-02-21T06:30:17.572Z,20.43
2019-02-21T06:32:47.846Z,18.33
2019-02-21T06:35:21.177Z,22.90
2019-02-21T06:37:52.150Z,18.80
2019-02-21T06:40:22.606Z,24.60
2019-02-21T06:42:52.881Z,20.13
2019-02-21T06:45:23.161Z,17.83
2019-02-21T06:47:53.478Z,19.93
2019-02-21T06:50:26.987Z,20.00
2019-02-21T06:52:55.749Z,16.47
2019-02-21T06:55:26.986Z,21.77
2019-02-21T06:57:57.235Z,18.87
2019-02-21T07:00:27.556Z,24.37
2019-02-21T07:02:57.852Z,18.17
2019-02-21T07:05:28.152Z,21.40
2019-02-21T07:07:58.425Z,20.03
2019-02-21T07:10:28.695Z,21.77
2019-02-21T07:12:59.000Z,19.50
2019-02-21T07:15:29.343Z,19.40
2019-02-21T07:17:59.629Z,20.60
2019-02-21T07:20:30.020Z,21.07
2019-02-21T07:23:01.403Z,20.87
2019-02-21T07:25:39.242Z,26.67
2019-02-21T07:28:12.511Z,24.93
2019-02-21T07:30:43.108Z,24.73
2019-02-21T07:33:13.373Z,22.60
2019-02-21T07:35:43.681Z,21.47
2019-02-21T07:38:13.946Z,28.53
2019-02-21T07:40:44.268Z,24.33
2019-02-21T07:43:14.531Z,20.50
2019-02-21T07:45:44.838Z,24.40
2019-02-21T07:48:15.108Z,23.97
2019-02-21T07:50:45.388Z,25.93
2019-02-21T07:53:15.720Z,24.70
2019-02-21T07:55:45.986Z,28.73
2019-02-21T07:58:16.263Z,26.40
2019-02-21T08:00:46.573Z,29.23
2019-02-21T08:03:16.874Z,24.20
2019-02-21T08:05:47.156Z,28.80
2019-02-21T08:08:17.543Z,29.00
2019-02-21T08:10:47.869Z,25.33
2019-02-21T08:13:18.150Z,28.77
2019-02-21T08:15:48.439Z,31.90
2019-02-21T08:18:18.715Z,26.00
2019-02-21T08:20:49.030Z,29.20
2019-02-21T08:23:19.364Z,29.60
2019-02-21T08:25:49.609Z,27.33
2019-02-21T08:28:20.164Z,29.67
2019-02-21T08:30:50.477Z,30.83
2019-02-21T08:33:23.354Z,32.60
2019-02-21T08:35:54.235Z,27.23
2019-02-21T08:38:24.693Z,33.53
2019-02-21T08:40:57.205Z,32.60
2019-02-21T08:43:27.941Z,35.33
2019-02-21T08:45:58.279Z,33.23
2019-02-21T08:48:28.834Z,31.30
2019-02-21T08:51:00.750Z,30.60
2019-02-21T08:53:31.298Z,30.10
2019-02-21T08:56:01.763Z,37.60
2019-02-21T08:58:32.664Z,31.40
2019-02-21T09:01:03.521Z,28.50
2019-02-21T09:03:34.760Z,31.63
2019-02-21T09:06:05.169Z,31.70
2019-02-21T09:08:37.256Z,27.17
2019-02-21T09:11:07.671Z,29.27
2019-02-21T09:13:37.913Z,33.23
2019-02-21T09:16:08.257Z,33.23
2019-02-21T09:18:38.582Z,30.40
2019-02-21T09:21:08.879Z,28.77
2019-02-21T09:23:39.409Z,28.27
2019-02-21T09:26:10.139Z,32.23
2019-02-21T09:28:40.567Z,28.07
2019-02-21T09:31:10.878Z,26.60
2019-02-21T09:33:43.663Z,26.50
2019-02-21T09:36:13.185Z,36.07
2019-02-21T09:38:43.488Z,32.50
2019-02-21T09:41:13.903Z,28.80
2019-02-21T09:43:44.206Z,31.70
2019-02-21T09:46:14.478Z,33.30
2019-02-21T09:48:44.806Z,35.27
2019-02-21T09:51:18.018Z,31.23
2019-02-21T09:53:47.214Z,31.87
2019-02-21T09:56:17.486Z,36.47
2019-02-21T09:58:47.870Z,39.33
2019-02-21T10:01:18.212Z,53.60
2019-02-21T10:03:48.706Z,43.77
2019-02-21T10:06:21.436Z,37.80
2019-02-21T10:08:52.124Z,36.53
2019-02-21T10:11:22.682Z,36.93
2019-02-21T10:13:53.432Z,31.33
2019-02-21T10:16:23.890Z,34.00
2019-02-21T10:18:54.949Z,28.27
2019-02-21T10:21:25.892Z,29.83
2019-02-21T10:23:56.958Z,30.80
2019-02-21T10:26:27.478Z,31.07
2019-02-21T10:28:57.857Z,37.33
2019-02-21T10:31:28.681Z,36.30
2019-02-21T10:33:59.115Z,37.10
2019-02-21T10:36:30.228Z,33.03
2019-02-21T10:39:00.678Z,33.47
2019-02-21T10:41:32.715Z,34.50
2019-02-21T10:44:04.548Z,31.67
2019-02-21T10:46:35.914Z,31.70
2019-02-21T10:49:06.178Z,33.30
2019-02-21T10:51:37.809Z,33.67
2019-02-21T10:54:08.098Z,34.23
2019-02-21T10:56:38.382Z,34.07
2019-02-21T10:59:08.684Z,36.93
2019-02-21T11:01:38.943Z,35.17
2019-02-21T11:04:09.220Z,31.23
2019-02-21T11:06:39.477Z,34.03
2019-02-21T11:09:13.068Z,35.33
2019-02-21T11:11:43.440Z,34.20
2019-02-21T11:14:13.711Z,39.37
2019-02-21T11:16:44.092Z,37.07
2019-02-21T11:19:14.360Z,35.97
2019-02-21T11:21:47.449Z,35.33
2019-02-21T11:24:17.751Z,34.33
2019-02-21T11:26:48.003Z,36.50
2019-02-21T11:29:18.307Z,37.83
2019-02-21T11:31:48.592Z,36.17
2019-02-21T11:34:19.021Z,38.23
2019-02-21T11:36:49.297Z,36.83
2019-02-21T11:39:20.095Z,46.47
2019-02-21T11:41:50.375Z,37.67
2019-02-21T11:44:20.784Z,33.90
2019-02-21T11:46:51.500Z,37.57
2019-02-21T11:49:21.794Z,35.27
2019-02-21T11:51:53.137Z,40.87
2019-02-21T11:54:26.876Z,38.20
2019-02-21T11:56:55.404Z,36.93
2019-02-21T11:59:25.677Z,34.93
2019-02-21T12:01:55.976Z,36.10
2019-02-21T12:04:26.316Z,39.10
2019-02-21T12:06:56.648Z,35.50
2019-02-21T12:09:26.940Z,36.77
2019-02-21T12:11:57.241Z,43.47
2019-02-21T12:14:27.695Z,45.40
2019-02-21T12:16:57.985Z,40.97
2019-02-21T12:19:28.262Z,39.53
2019-02-21T12:21:59.418Z,43.13
2019-02-21T12:24:29.834Z,38.83
2019-02-21T12:27:00.112Z,42.17
2019-02-21T12:29:30.401Z,42.60
2019-02-21T12:32:00.705Z,41.97
2019-02-21T12:34:32.699Z,37.00
2019-02-21T12:37:02.966Z,36.37
2019-02-21T12:39:33.296Z,38.03
2019-02-21T12:42:03.640Z,38.13
2019-02-21T12:44:33.939Z,37.20
2019-02-21T12:47:04.465Z,39.47
2019-02-21T12:49:34.790Z,37.43
2019-02-21T12:52:05.071Z,40.33
2019-02-21T12:54:35.365Z,40.10
2019-02-21T12:57:05.633Z,43.37
2019-02-21T12:59:35.933Z,41.90
2019-02-21T13:02:06.284Z,39.13
2019-02-21T13:04:36.625Z,37.77
2019-02-21T13:07:08.765Z,39.07
2019-02-21T13:09:39.044Z,37.33
2019-02-21T13:12:10.146Z,37.53
2019-02-21T13:14:41.460Z,42.13
2019-02-21T13:17:13.226Z,34.93
2019-02-21T13:19:43.518Z,35.37
2019-02-21T13:22:13.796Z,33.20
2019-02-21T13:24:44.145Z,31.17
2019-02-21T13:27:14.478Z,32.67
2019-02-21T13:29:44.766Z,33.73
2019-02-21T13:32:15.225Z,29.93
2019-02-21T13:34:46.186Z,30.43
2019-02-21T13:37:27.974Z,30.20
2019-02-21T13:39:48.683Z,27.40
2019-02-21T13:42:18.986Z,31.30
2019-02-21T13:44:50.664Z,31.73
2019-02-21T13:47:21.034Z,33.87
2019-02-21T13:49:51.618Z,27.73
2019-02-21T13:52:21.931Z,30.10
2019-02-21T13:54:52.291Z,33.03
2019-02-21T13:57:22.578Z,24.77
2019-02-21T13:59:52.891Z,26.53
2019-02-21T14:02:23.480Z,35.43
2019-02-21T14:04:53.868Z,31.80
2019-02-21T14:07:25.779Z,40.57
2019-02-21T14:09:56.178Z,41.03
2019-02-21T14:12:26.759Z,37.70
2019-02-21T14:14:57.429Z,36.40
2019-02-21T14:17:28.396Z,31.53
2019-02-21T14:19:58.870Z,34.40
2019-02-21T14:22:29.198Z,33.77
2019-02-21T14:24:59.598Z,33.50
2019-02-21T14:27:31.850Z,38.10
2019-02-21T14:30:02.095Z,33.27
2019-02-21T14:32:33.267Z,34.93
2019-02-21T14:35:05.259Z,30.50
2019-02-21T14:37:35.863Z,34.50
2019-02-21T14:40:09.000Z,32.90
2019-02-21T14:42:39.438Z,37.67
2019-02-21T14:45:18.572Z,35.77
2019-02-21T14:47:49.025Z,32.43
2019-02-21T14:50:19.348Z,33.43
2019-02-21T14:52:49.928Z,34.70
2019-02-21T14:55:20.712Z,33.73
2019-02-21T14:57:51.081Z,33.87
2019-02-21T15:00:22.781Z,34.27
2019-02-21T15:02:53.227Z,32.23
2019-02-21T15:05:24.320Z,34.43
2019-02-21T15:07:54.871Z,32.90
2019-02-21T15:10:25.556Z,35.67
2019-02-21T15:12:56.240Z,32.30
2019-02-21T15:15:27.497Z,33.20
2019-02-21T15:18:06.830Z,44.60
2019-02-21T15:20:36.662Z,38.90
2019-02-21T15:23:03.777Z,35.40
2019-02-21T15:25:34.502Z,30.50
2019-02-21T15:28:06.820Z,33.37
2019-02-21T15:30:37.369Z,32.87
2019-02-21T15:33:07.757Z,35.90
2019-02-21T15:35:38.333Z,35.40
2019-02-21T15:38:19.630Z,37.80
2019-02-21T15:40:43.398Z,32.67
2019-02-21T15:43:13.999Z,33.27
2019-02-21T15:45:44.343Z,38.83
2019-02-21T15:48:15.199Z,40.17
2019-02-21T15:50:45.811Z,47.57
2019-02-21T15:53:16.465Z,37.60
2019-02-21T15:55:47.086Z,35.63
2019-02-21T15:58:17.594Z,39.93
2019-02-21T16:00:47.894Z,36.77
2019-02-21T16:03:18.391Z,35.87
2019-02-21T16:05:50.575Z,36.87
2019-02-21T16:08:21.149Z,45.67
2019-02-21T16:10:51.573Z,35.30
2019-02-21T16:13:23.448Z,34.20
2019-02-21T16:15:54.036Z,37.53
2019-02-21T16:18:24.500Z,38.20
2019-02-21T16:20:54.907Z,36.17
2019-02-21T16:23:25.551Z,34.20
2019-02-21T16:25:55.970Z,41.23
2019-02-21T16:28:26.371Z,38.00
2019-02-21T16:30:56.697Z,33.87
2019-02-21T16:33:28.769Z,35.77
2019-02-21T16:35:59.040Z,36.03
2019-02-21T16:38:30.805Z,34.77
2019-02-21T16:41:01.346Z,38.50
2019-02-21T16:43:33.287Z,32.27
2019-02-21T16:46:07.851Z,38.70
2019-02-21T16:48:36.234Z,39.07
2019-02-21T16:51:07.028Z,37.93
2019-02-21T16:53:37.843Z,32.77
2019-02-21T16:56:08.815Z,38.93
2019-02-21T16:58:42.699Z,43.57
2019-02-21T17:01:12.326Z,34.17
2019-02-21T17:03:44.477Z,36.50
2019-02-21T17:06:15.584Z,39.30
2019-02-21T17:08:46.411Z,38.60
2019-02-21T17:11:18.388Z,38.90
2019-02-21T17:13:49.009Z,41.83
2019-02-21T17:16:19.747Z,37.57
2019-02-21T17:18:50.518Z,33.27
2019-02-21T17:21:21.256Z,40.40
2019-02-21T17:23:51.676Z,37.73
2019-02-21T17:26:22.277Z,40.23
2019-02-21T17:28:52.683Z,40.67
2019-02-21T17:31:22.999Z,40.00
2019-02-21T17:33:54.244Z,34.90
2019-02-21T17:36:24.823Z,36.67
2019-02-21T17:38:55.828Z,41.03
2019-02-21T17:41:26.173Z,36.67
2019-02-21T17:43:56.567Z,37.67
2019-02-21T17:46:26.966Z,40.23
2019-02-21T17:48:57.488Z,38.97
2019-02-21T17:51:29.089Z,42.37
2019-02-21T17:54:00.195Z,43.87
2019-02-21T17:56:30.811Z,39.70
2019-02-21T17:59:01.183Z,36.60
2019-02-21T18:01:32.207Z,41.40
2019-02-21T18:04:02.485Z,36.20
2019-02-21T18:06:32.778Z,33.83
2019-02-21T18:09:04.798Z,36.70
2019-02-21T18:11:37.674Z,29.07
2019-02-21T18:14:08.069Z,39.20
2019-02-21T18:16:38.500Z,36.50
2019-02-21T18:19:09.092Z,30.87
2019-02-21T18:21:40.003Z,31.93
2019-02-21T18:24:10.373Z,40.40
2019-02-21T18:26:41.864Z,30.50
2019-02-21T18:29:12.271Z,38.33
2019-02-21T18:31:42.689Z,38.73
2019-02-21T18:34:13.414Z,37.00
2019-02-21T18:36:44.032Z,34.30
2019-02-21T18:39:14.771Z,40.73
2019-02-21T18:41:45.212Z,40.00
2019-02-21T18:44:15.924Z,36.47
2019-02-21T18:46:46.221Z,42.50
2019-02-21T18:49:16.558Z,32.57
2019-02-21T18:51:47.320Z,36.63
2019-02-21T18:54:19.556Z,35.87
2019-02-21T18:56:50.312Z,35.87
2019-02-21T18:59:31.110Z,40.47
2019-02-21T19:01:53.475Z,37.10
2019-02-21T19:04:24.094Z,33.73
2019-02-21T19:06:54.628Z,27.50
2019-02-21T19:09:25.545Z,30.43
2019-02-21T19:11:56.331Z,31.33
2019-02-21T19:14:27.311Z,31.40
2019-02-21T19:16:58.260Z,32.57
2019-02-21T19:19:29.033Z,31.83
2019-02-21T19:22:00.176Z,32.47
2019-02-21T19:24:30.857Z,34.20
2019-02-21T19:27:01.241Z,41.80
2019-02-21T19:29:31.621Z,36.20
2019-02-21T19:32:01.929Z,32.07
2019-02-21T19:34:34.905Z,28.43
2019-02-21T19:37:05.223Z,30.60
2019-02-21T19:39:35.607Z,23.93
2019-02-21T19:42:06.012Z,27.43
2019-02-21T19:44:37.746Z,25.07
2019-02-21T19:47:09.771Z,27.47
2019-02-21T19:49:40.034Z,28.60
2019-02-21T19:52:11.507Z,28.33
2019-02-21T19:54:42.014Z,29.00
2019-02-21T19:57:13.171Z,33.03
2019-02-21T19:59:44.683Z,32.83
2019-02-21T20:02:14.968Z,28.90
2019-02-21T20:04:46.138Z,33.73
2019-02-21T20:07:17.519Z,26.03
2019-02-21T20:09:47.853Z,25.87
2019-02-21T20:12:19.480Z,25.00
2019-02-21T20:14:50.055Z,22.40
2019-02-21T20:17:21.876Z,29.50
2019-02-21T20:19:54.216Z,26.23
2019-02-21T20:22:24.844Z,24.87
2019-02-21T20:24:55.268Z,23.70
2019-02-21T20:27:27.387Z,24.37
2019-02-21T20:29:57.869Z,25.50
2019-02-21T20:32:28.732Z,26.87
2019-02-21T20:34:59.556Z,25.60
2019-02-21T20:37:30.325Z,27.40
2019-02-21T20:40:00.631Z,28.00
2019-02-21T20:42:31.816Z,25.77
2019-02-21T20:45:02.460Z,23.40
2019-02-21T20:47:37.121Z,26.43
2019-02-21T20:50:09.558Z,25.13
2019-02-21T20:52:39.884Z,26.83
2019-02-21T20:55:11.809Z,28.70
2019-02-21T20:57:42.122Z,26.03
2019-02-21T21:00:16.571Z,26.33
2019-02-21T21:02:47.982Z,29.67
2019-02-21T21:05:18.267Z,29.23
2019-02-21T21:07:48.578Z,28.50
2019-02-21T21:10:19.045Z,26.87
2019-02-21T21:12:49.338Z,26.83
2019-02-21T21:15:20.558Z,27.97
2019-02-21T21:17:50.942Z,25.33
2019-02-21T21:20:21.337Z,26.00
2019-02-21T21:22:51.603Z,29.73
2019-02-21T21:25:21.944Z,27.23
2019-02-21T21:27:53.282Z,29.37
2019-02-21T21:30:23.553Z,28.57
2019-02-21T21:32:53.812Z,29.10
2019-02-21T21:35:24.110Z,25.23
2019-02-21T21:37:54.422Z,20.93
2019-02-21T21:40:24.723Z,24.73
2019-02-21T21:42:55.007Z,25.77
2019-02-21T21:45:26.268Z,24.03
2019-02-21T21:47:57.395Z,22.07
2019-02-21T21:50:27.812Z,32.17
2019-02-21T21:52:58.135Z,25.07
2019-02-21T21:55:28.416Z,20.97
2019-02-21T21:57:58.710Z,26.43
2019-02-21T22:00:28.982Z,23.10
2019-02-21T22:02:59.267Z,27.20
2019-02-21T22:05:29.557Z,24.50
2019-02-21T22:07:59.838Z,25.80
2019-02-21T22:10:31.716Z,23.03
2019-02-21T22:13:02.010Z,23.97
2019-02-21T22:15:32.323Z,25.10
2019-02-21T22:18:02.604Z,26.03
2019-02-21T22:20:33.196Z,25.93
2019-02-21T22:23:03.496Z,26.80
2019-02-21T22:25:34.001Z,26.00
2019-02-21T22:28:04.675Z,34.17
2019-02-21T22:30:35.080Z,33.80
2019-02-21T22:33:05.579Z,26.27
2019-02-21T22:35:35.856Z,30.83
2019-02-21T22:38:06.146Z,30.20
2019-02-21T22:40:36.592Z,29.57
2019-02-21T22:43:07.010Z,28.47
2019-02-21T22:45:37.270Z,31.83
2019-02-21T22:48:07.542Z,27.23
2019-02-21T22:50:37.808Z,28.23
2019-02-21T22:53:08.104Z,25.60
2019-02-21T22:55:38.397Z,27.83
2019-02-21T22:58:08.688Z,28.70
2019-02-21T23:00:58.356Z,24.43
2019-02-21T23:03:34.740Z,27.50
2019-02-21T23:06:41.650Z,28.17
2019-02-21T23:09:27.620Z,26.90
2019-02-21T23:11:54.575Z,27.23
2019-02-21T23:14:25.024Z,28.57
2019-02-21T23:16:55.301Z,24.60
2019-02-21T23:19:25.584Z,21.00
2019-02-21T23:21:55.843Z,25.57
2019-02-21T23:24:26.156Z,24.73
2019-02-21T23:26:56.609Z,24.90
2019-02-21T23:29:26.877Z,20.00
2019-02-21T23:31:57.165Z,17.27
2019-02-21T23:34:38.422Z,19.43
2019-02-21T23:37:09.679Z,18.07
2019-02-21T23:39:39.972Z,17.50
2019-02-21T23:42:10.347Z,19.87
2019-02-21T23:44:40.625Z,16.10
2019-02-21T23:47:10.906Z,15.03
2019-02-21T23:49:41.187Z,19.83
2019-02-21T23:52:11.498Z,17.53
2019-02-21T23:54:41.786Z,14.93
2019-02-21T23:57:12.061Z,16.20
2019-02-21T23:59:43.328Z,16.30
